Terminal Aerodrome Forecast
Issued by NWS Duluth, MN

Current Version | Previous Version | Text Only | Print | Product List | Glossary On
Versions: 1 2 3 4 5 6 7 8 9 10 11 12 13 14 15 16 17
803
FTUS43 KDLH 161014 AAD
TAFDLH
TAF AMD
KDLH 161014Z 1610/1706 25008KT 4SM BR SKC
     FM161800 23007KT P6SM BKN200
     FM170400 VRB03KT 6SM BR SCT200=

USA.gov is the U.S. government's official web portal to all federal, state and local government web resources and services.